Time;durP1;ratioP1;P1;durP2;ratioP2;P2;SDS_P1;SDS_P2;PMS_P1;PMS_P2;Temp;Humidity;BMP_temperature;BMP_pressure;BME280_temperature;BME280_humidity;BME280_pressure;Samples;Min_cycle;Max_cycle;Signal;HPM_P1;HPM_P2
2022/01/21 00:00:48;;;;;;;1.80;1.10;;;17.30;58.40;;;;;;5098114;28;20176;-15
2022/01/21 00:03:14;;;;;;;2.07;1.20;;;17.30;58.40;;;;;;5098797;28;20681;-15
2022/01/21 00:05:39;;;;;;;2.43;1.10;;;17.20;58.40;;;;;;5080138;28;20267;-17
2022/01/21 00:08:05;;;;;;;2.33;1.10;;;17.20;58.50;;;;;;5097136;28;20217;-15
2022/01/21 00:10:36;;;;;;;2.00;1.13;;;17.20;58.50;;;;;;5097208;28;20468;-15
2022/01/21 00:13:04;;;;;;;1.67;0.90;;;17.20;58.40;;;;;;5079721;28;20188;-14
2022/01/21 00:15:30;;;;;;;1.73;0.97;;;17.20;58.40;;;;;;5097138;28;20160;-15
2022/01/21 00:17:55;;;;;;;1.80;1.10;;;17.20;58.50;;;;;;5097847;28;20313;-19
2022/01/21 00:31:19;;;;;;;2.03;1.07;;;17.00;58.80;;;;;;5097982;28;20606;-17
2022/01/21 00:33:45;;;;;;;2.43;1.20;;;17.00;58.80;;;;;;5062395;28;20167;-16
2022/01/21 00:36:13;;;;;;;2.30;1.03;;;17.00;58.80;;;;;;5079184;28;20168;-19
2022/01/21 00:38:41;;;;;;;2.77;1.30;;;17.00;58.90;;;;;;5079109;28;20359;-17
2022/01/21 00:41:08;;;;;;;3.07;1.20;;;17.00;58.80;;;;;;5079861;28;20262;-14
2022/01/21 00:43:43;;;;;;;2.30;1.40;;;17.00;58.90;;;;;;5080387;28;20630;-17
2022/01/21 00:46:13;;;;;;;2.17;1.20;;;17.00;58.90;;;;;;5097407;28;20191;-17
2022/01/21 00:48:39;;;;;;;2.03;1.10;;;16.90;59.00;;;;;;5079796;28;20268;-17
2022/01/21 00:51:05;;;;;;;2.90;1.40;;;16.90;59.10;;;;;;5097602;28;20664;-16
2022/01/21 00:53:30;;;;;;;1.53;1.17;;;16.90;59.00;;;;;;5097056;28;20803;-16
2022/01/21 00:56:03;;;;;;;2.07;1.17;;;16.90;59.20;;;;;;5096755;28;20168;-17
2022/01/21 00:58:29;;;;;;;1.67;1.20;;;16.80;59.20;;;;;;5095363;28;20179;-15
2022/01/21 01:00:55;;;;;;;1.73;1.20;;;16.80;59.30;;;;;;5096995;28;20165;-14
2022/01/21 01:03:20;;;;;;;1.70;1.10;;;16.80;59.30;;;;;;5097593;28;20207;-16
2022/01/21 01:05:51;;;;;;;1.63;1.10;;;16.80;59.40;;;;;;5079495;28;20181;-16
2022/01/21 01:08:17;;;;;;;2.43;1.00;;;16.70;59.40;;;;;;5097054;28;20190;-16
2022/01/21 01:11:14;;;;;;;1.50;1.00;;;16.70;59.50;;;;;;5079477;28;20167;-14
2022/01/21 01:21:31;;;;;;;3.53;1.20;;;16.60;59.60;;;;;;5100328;28;20250;-16
2022/01/21 01:29:11;;;;;;;2.73;1.10;;;16.60;60.00;;;;;;5100996;28;20615;-16
2022/01/21 01:31:37;;;;;;;2.57;1.30;;;16.50;60.00;;;;;;5100963;28;20165;-15
2022/01/21 01:34:04;;;;;;;1.37;1.00;;;16.50;60.10;;;;;;5083473;28;20164;-15
2022/01/21 01:36:30;;;;;;;1.87;1.07;;;16.40;60.90;;;;;;5082612;28;20179;-14
2022/01/21 01:41:45;;;;;;;1.80;1.10;;;16.40;60.60;;;;;;5084055;28;20241;-17
2022/01/21 01:49:40;;;;;;;1.90;1.00;;;16.30;61.00;;;;;;5100428;28;20202;-16
2022/01/21 01:52:17;;;;;;;1.33;1.10;;;16.30;61.20;;;;;;5082849;28;20182;-15
2022/01/21 01:54:51;;;;;;;1.57;1.00;;;16.30;61.40;;;;;;5100463;28;20510;-14
2022/01/21 01:57:17;;;;;;;2.87;1.17;;;16.30;61.40;;;;;;5100592;28;20155;-17
2022/01/21 01:59:44;;;;;;;1.83;1.10;;;16.30;61.50;;;;;;5082973;28;20182;-16
2022/01/21 02:02:13;;;;;;;1.80;1.00;;;16.30;61.60;;;;;;5100311;28;20210;-14
2022/01/21 02:04:40;;;;;;;2.77;1.47;;;16.20;61.60;;;;;;5082536;28;20534;-14
2022/01/21 02:07:06;;;;;;;2.00;1.13;;;16.20;61.90;;;;;;5099583;28;20190;-15
2022/01/21 02:09:33;;;;;;;1.13;0.90;;;16.20;62.00;;;;;;5082579;28;20656;-16
2022/01/21 02:11:59;;;;;;;1.57;1.00;;;16.10;62.00;;;;;;5100390;28;20260;-15
2022/01/21 02:14:30;;;;;;;1.77;1.00;;;16.10;62.10;;;;;;5099820;28;20250;-14
2022/01/21 02:22:20;;;;;;;2.00;1.00;;;16.10;62.50;;;;;;5099668;28;20178;-14
2022/01/21 02:24:58;;;;;;;2.13;1.20;;;16.10;62.50;;;;;;5099795;28;20189;-14
2022/01/21 02:27:25;;;;;;;3.10;1.20;;;16.10;62.30;;;;;;5082121;28;20170;-14
2022/01/21 02:29:54;;;;;;;3.17;1.20;;;16.20;61.70;;;;;;5100034;28;20207;-15
2022/01/21 02:32:36;;;;;;;1.40;1.00;;;16.30;61.00;;;;;;5098663;28;20571;-14
2022/01/21 02:35:04;;;;;;;2.07;1.10;;;16.40;60.20;;;;;;5099677;28;20168;-14
2022/01/21 02:37:30;;;;;;;2.33;1.07;;;16.50;59.70;;;;;;5081760;28;20179;-15
2022/01/21 02:39:56;;;;;;;2.43;1.20;;;16.50;59.50;;;;;;5099214;28;20180;-14
2022/01/21 02:42:21;;;;;;;1.63;1.07;;;16.50;59.40;;;;;;5101333;28;20239;-14
2022/01/21 02:44:49;;;;;;;1.43;1.10;;;16.50;59.30;;;;;;5081739;28;20180;-15
2022/01/21 02:47:15;;;;;;;1.80;0.90;;;16.50;59.30;;;;;;5099426;28;20523;-15
2022/01/21 02:49:41;;;;;;;2.17;1.10;;;16.50;59.30;;;;;;5080930;28;20732;-17
2022/01/21 02:52:07;;;;;;;1.57;1.07;;;16.50;59.30;;;;;;5082096;28;20285;-14
2022/01/21 02:54:36;;;;;;;1.50;1.10;;;16.50;59.40;;;;;;5082040;28;20224;-14
2022/01/21 02:57:07;;;;;;;1.93;1.20;;;16.40;59.40;;;;;;5082006;28;20182;-19
2022/01/21 02:59:33;;;;;;;2.83;1.20;;;16.40;59.40;;;;;;5081603;28;20181;-17
2022/01/21 03:02:00;;;;;;;1.63;1.00;;;16.40;59.50;;;;;;5098935;28;20200;-14
2022/01/21 03:06:56;;;;;;;2.87;1.10;;;16.30;59.70;;;;;;5098718;28;20179;-15
2022/01/21 03:09:22;;;;;;;1.63;0.97;;;16.30;59.70;;;;;;5098471;28;20503;-16
2022/01/21 03:11:47;;;;;;;1.53;1.00;;;16.30;59.80;;;;;;5081498;28;20183;-14
2022/01/21 03:14:13;;;;;;;1.70;1.00;;;16.20;59.90;;;;;;5081508;28;20176;-16
2022/01/21 03:16:39;;;;;;;1.20;0.90;;;16.20;60.00;;;;;;5098820;28;20168;-16
2022/01/21 03:19:05;;;;;;;1.57;1.10;;;16.20;60.10;;;;;;5099476;28;20233;-14
2022/01/21 03:21:31;;;;;;;1.60;1.20;;;16.20;60.40;;;;;;5098632;28;20184;-14
2022/01/21 03:23:57;;;;;;;1.50;1.00;;;16.10;60.50;;;;;;5081899;28;20573;-14
2022/01/21 03:26:26;;;;;;;2.10;1.10;;;16.10;60.70;;;;;;5080780;28;20238;-14
2022/01/21 03:28:58;;;;;;;1.63;1.10;;;16.00;60.90;;;;;;5081207;28;20212;-17
2022/01/21 03:31:24;;;;;;;1.97;1.20;;;16.00;61.10;;;;;;5081315;28;20171;-14
2022/01/21 03:33:50;;;;;;;1.67;1.03;;;16.00;61.20;;;;;;5099179;28;20171;-14
2022/01/21 03:36:17;;;;;;;1.90;1.10;;;16.00;61.40;;;;;;5081491;28;20180;-15
2022/01/21 03:38:43;;;;;;;1.83;1.10;;;15.90;61.60;;;;;;5081072;28;20197;-14
2022/01/21 03:41:09;;;;;;;2.80;1.10;;;15.90;61.80;;;;;;5083036;28;20182;-25
2022/01/21 03:43:35;;;;;;;1.10;0.90;;;15.80;62.10;;;;;;5098582;28;20178;-15
2022/01/21 03:46:02;;;;;;;2.40;1.20;;;15.80;62.50;;;;;;5098541;28;20186;-14
2022/01/21 03:48:30;;;;;;;1.30;1.00;;;15.80;62.70;;;;;;5080666;28;20194;-15
2022/01/21 03:50:56;;;;;;;1.37;1.20;;;15.70;62.90;;;;;;5081307;28;20179;-17
2022/01/21 03:53:22;;;;;;;1.57;1.00;;;15.70;63.90;;;;;;5080227;28;20176;-14
2022/01/21 03:55:49;;;;;;;1.77;1.10;;;15.60;63.50;;;;;;5081212;28;20292;-16
2022/01/21 03:58:17;;;;;;;1.83;1.00;;;15.60;63.80;;;;;;5098171;28;20178;-14
2022/01/21 04:00:51;;;;;;;1.73;1.07;;;15.50;64.00;;;;;;5098345;28;20224;-15
2022/01/21 04:03:17;;;;;;;1.40;0.90;;;15.50;64.20;;;;;;5098610;28;20179;-14
2022/01/21 04:05:43;;;;;;;2.67;1.20;;;15.40;64.50;;;;;;5080851;28;20190;-15
2022/01/21 04:08:12;;;;;;;1.90;1.20;;;15.40;64.80;;;;;;5098032;28;20179;-16
2022/01/21 04:10:41;;;;;;;2.40;1.40;;;17.30;57.90;;;;;;5097038;28;20207;-14
2022/01/21 04:13:15;;;;;;;1.57;1.07;;;19.60;52.00;;;;;;5080568;28;20176;-16
2022/01/21 04:15:42;;;;;;;1.10;0.90;;;19.80;49.90;;;;;;5080259;28;20173;-15
2022/01/21 04:18:18;;;;;;;1.50;1.00;;;20.00;49.30;;;;;;5080332;28;20170;-15
2022/01/21 04:20:46;;;;;;;2.47;1.07;;;20.30;48.90;;;;;;5079973;28;20174;-16
2022/01/21 04:23:12;;;;;;;1.40;0.93;;;20.70;48.30;;;;;;5098186;28;20179;-14
2022/01/21 04:25:39;;;;;;;1.70;1.00;;;21.00;47.60;;;;;;5097404;28;20174;-16
2022/01/21 04:28:06;;;;;;;2.20;1.10;;;21.30;47.20;;;;;;5097437;28;20175;-16
2022/01/21 04:30:33;;;;;;;2.23;1.27;;;21.40;46.80;;;;;;5079676;28;20183;-15
2022/01/21 04:32:59;;;;;;;1.37;0.93;;;21.60;46.50;;;;;;5080164;28;20233;-15
2022/01/21 04:35:25;;;;;;;1.63;1.10;;;21.60;46.70;;;;;;5079933;28;20169;-16
2022/01/21 04:38:00;;;;;;;1.70;1.07;;;21.60;46.30;;;;;;5097215;28;20171;-16
2022/01/21 04:40:33;;;;;;;1.63;1.00;;;21.30;46.40;;;;;;5097176;28;20166;-15
2022/01/21 04:48:29;;;;;;;1.63;1.10;;;20.70;47.20;;;;;;5097237;28;20234;-15
2022/01/21 04:50:58;;;;;;;1.80;1.00;;;20.40;47.50;;;;;;5080084;28;20232;-15
2022/01/21 04:53:26;;;;;;;1.90;0.90;;;20.20;47.80;;;;;;5097173;28;20421;-15
2022/01/21 04:55:53;;;;;;;1.80;1.20;;;19.90;48.20;;;;;;5097197;28;20155;-16
2022/01/21 04:58:19;;;;;;;2.23;1.00;;;19.80;48.50;;;;;;5097239;28;20430;-16
2022/01/21 05:00:45;;;;;;;1.37;1.00;;;19.50;48.80;;;;;;5079777;28;20181;-15
2022/01/21 05:03:12;;;;;;;1.40;1.10;;;19.30;49.20;;;;;;5097131;28;20227;-19
2022/01/21 05:05:39;;;;;;;1.47;1.07;;;19.10;49.70;;;;;;5096938;28;20178;-16
2022/01/21 05:08:09;;;;;;;2.03;1.10;;;18.90;50.00;;;;;;5097373;28;20773;-15
2022/01/21 05:10:36;;;;;;;1.30;1.10;;;18.70;50.40;;;;;;5097139;28;20183;-17
2022/01/21 05:13:03;;;;;;;1.27;1.10;;;18.40;51.30;;;;;;5079893;28;20170;-15
2022/01/21 05:16:01;;;;;;;2.17;1.00;;;18.30;51.40;;;;;;5079597;28;20181;-15
2022/01/21 05:18:18;;;;;;;1.50;1.10;;;18.10;51.90;;;;;;5095390;28;20265;-16
2022/01/21 05:20:44;;;;;;;2.60;1.10;;;17.90;52.50;;;;;;5079592;28;20174;-16
2022/01/21 05:23:09;;;;;;;1.23;1.00;;;17.70;52.90;;;;;;5079265;28;20175;-17
2022/01/21 05:25:35;;;;;;;2.43;1.20;;;17.50;53.50;;;;;;5096963;28;20574;-15
2022/01/21 05:28:01;;;;;;;1.70;0.97;;;17.40;53.90;;;;;;5079188;28;20199;-16
2022/01/21 05:30:27;;;;;;;1.57;1.00;;;17.30;54.40;;;;;;5079209;28;20187;-15
2022/01/21 05:32:53;;;;;;;1.63;1.00;;;17.10;54.90;;;;;;5096789;28;20242;-15
2022/01/21 05:35:19;;;;;;;2.33;1.03;;;17.00;55.30;;;;;;5079364;28;20161;-15
2022/01/21 05:37:45;;;;;;;1.43;0.97;;;16.90;55.70;;;;;;5089117;28;20185;-15
2022/01/21 05:40:16;;;;;;;1.33;1.03;;;16.80;56.10;;;;;;5095894;28;20188;-16
2022/01/21 05:42:42;;;;;;;3.50;1.13;;;16.70;56.50;;;;;;5078151;28;20172;-16
2022/01/21 05:47:36;;;;;;;1.50;1.00;;;16.50;57.20;;;;;;5096568;28;20595;-14
2022/01/21 05:50:02;;;;;;;1.33;1.00;;;16.40;57.60;;;;;;5077868;28;20296;-16
2022/01/21 05:52:35;;;;;;;1.30;1.00;;;16.50;57.70;;;;;;5095850;28;20211;-15
2022/01/21 05:55:01;;;;;;;1.97;1.00;;;16.60;57.20;;;;;;5096573;28;20170;-14
2022/01/21 05:57:32;;;;;;;1.23;1.03;;;17.00;56.10;;;;;;5095293;28;20161;-15
2022/01/21 05:59:58;;;;;;;1.50;1.20;;;17.70;54.40;;;;;;5095483;28;20212;-15
2022/01/21 06:02:24;;;;;;;3.07;1.20;;;18.30;52.70;;;;;;5095760;28;20212;-17
2022/01/21 06:04:51;;;;;;;1.57;1.00;;;18.80;51.50;;;;;;5077910;28;20212;-15
2022/01/21 06:07:17;;;;;;;2.70;1.13;;;19.20;50.40;;;;;;5098377;28;20170;-15
2022/01/21 06:09:43;;;;;;;1.40;1.10;;;19.60;49.60;;;;;;5094878;28;20196;-17
2022/01/21 06:12:10;;;;;;;4.37;1.10;;;20.10;48.90;;;;;;5099476;28;20219;-14
2022/01/21 06:14:37;;;;;;;1.67;1.10;;;20.50;48.10;;;;;;5098991;28;20313;-15
2022/01/21 06:17:05;;;;;;;1.57;1.20;;;20.60;47.60;;;;;;5098882;28;20164;-16
2022/01/21 06:19:31;;;;;;;1.83;1.00;;;20.60;47.60;;;;;;5098405;28;20160;-18
2022/01/21 06:21:57;;;;;;;1.57;1.20;;;20.40;47.60;;;;;;5081337;28;20185;-16
2022/01/21 06:24:22;;;;;;;2.93;1.00;;;20.20;47.90;;;;;;5080983;28;20175;-16
2022/01/21 06:26:48;;;;;;;1.67;1.03;;;19.90;48.20;;;;;;5098831;28;20174;-18
2022/01/21 06:29:14;;;;;;;1.87;1.17;;;19.60;48.60;;;;;;5098599;28;20213;-16
2022/01/21 06:31:40;;;;;;;2.13;1.17;;;19.30;49.00;;;;;;5081203;28;20171;-15
2022/01/21 06:34:05;;;;;;;1.50;1.13;;;19.10;49.50;;;;;;5097628;28;20174;-18
2022/01/21 06:36:31;;;;;;;1.60;1.00;;;18.80;49.90;;;;;;5079824;28;20267;-15
2022/01/21 06:38:57;;;;;;;2.33;1.00;;;18.60;50.40;;;;;;5097798;28;20475;-15
2022/01/21 06:41:23;;;;;;;1.40;1.10;;;18.30;51.00;;;;;;5080337;28;20571;-15
2022/01/21 06:43:50;;;;;;;1.40;0.90;;;18.10;51.60;;;;;;5098378;28;20176;-15
2022/01/21 06:46:16;;;;;;;1.90;1.17;;;17.80;52.10;;;;;;5097863;28;20191;-16
2022/01/21 06:48:42;;;;;;;1.70;1.10;;;17.50;52.80;;;;;;5080537;28;20213;-15
2022/01/21 06:51:08;;;;;;;2.60;1.07;;;17.30;53.60;;;;;;5080092;28;20234;-14
2022/01/21 06:53:33;;;;;;;1.57;0.97;;;17.10;54.40;;;;;;5080422;28;20175;-15
2022/01/21 06:56:02;;;;;;;1.97;1.10;;;16.90;55.00;;;;;;5098193;28;20177;-15
2022/01/21 06:58:27;;;;;;;1.57;1.10;;;16.80;55.60;;;;;;5080506;28;20238;-17
2022/01/21 07:00:53;;;;;;;2.03;1.10;;;16.70;56.10;;;;;;5079836;28;20188;-14
2022/01/21 07:03:19;;;;;;;3.10;1.07;;;16.60;56.70;;;;;;5080589;28;20216;-17
2022/01/21 07:05:46;;;;;;;1.50;1.00;;;16.50;57.10;;;;;;5098091;28;20404;-17
2022/01/21 07:08:15;;;;;;;2.47;1.20;;;16.40;57.50;;;;;;5079919;28;20188;-16
2022/01/21 07:10:41;;;;;;;2.17;1.20;;;16.40;58.00;;;;;;5096839;28;20160;-20
2022/01/21 07:13:06;;;;;;;2.37;1.20;;;16.30;58.30;;;;;;5079033;28;20265;-15
2022/01/21 07:15:33;;;;;;;4.63;1.17;;;16.30;58.50;;;;;;5097655;28;20250;-15
2022/01/21 07:17:58;;;;;;;2.47;1.13;;;16.50;58.30;;;;;;5079015;28;20171;-14
2022/01/21 07:20:24;;;;;;;2.10;1.20;;;16.90;57.10;;;;;;5097270;28;20265;-14
2022/01/21 07:22:50;;;;;;;2.57;1.33;;;17.40;55.50;;;;;;5079119;28;20698;-16
2022/01/21 07:25:17;;;;;;;2.10;1.30;;;17.80;54.20;;;;;;5079551;28;20173;-17
2022/01/21 07:27:46;;;;;;;3.43;1.37;;;18.20;53.10;;;;;;5079528;28;20581;-15
2022/01/21 07:30:13;;;;;;;3.00;1.20;;;18.60;52.20;;;;;;5097438;28;20592;-16
2022/01/21 07:32:43;;;;;;;2.37;1.07;;;19.00;51.20;;;;;;5079824;28;20176;-15
2022/01/21 07:35:10;;;;;;;4.77;1.53;;;19.40;50.50;;;;;;5079861;28;20417;-16
2022/01/21 07:37:37;;;;;;;2.43;1.13;;;19.80;49.80;;;;;;5097367;28;20172;-19
2022/01/21 07:40:04;;;;;;;3.27;1.53;;;20.00;49.40;;;;;;5096364;28;20551;-15
2022/01/21 07:42:29;;;;;;;1.60;1.10;;;20.10;49.10;;;;;;5079152;28;20174;-15
2022/01/21 07:44:56;;;;;;;3.30;1.40;;;20.10;49.00;;;;;;5096944;28;20230;-16
2022/01/21 07:47:21;;;;;;;2.17;1.20;;;20.00;49.20;;;;;;5096706;28;20175;-16
2022/01/21 07:49:48;;;;;;;2.30;1.17;;;19.80;49.40;;;;;;5097117;28;20490;-15
2022/01/21 07:52:14;;;;;;;2.53;1.37;;;19.50;49.70;;;;;;5096783;28;20165;-16
2022/01/21 07:54:42;;;;;;;2.70;1.50;;;19.20;50.20;;;;;;5079646;28;20167;-15
2022/01/21 07:57:08;;;;;;;4.60;1.33;;;18.90;50.60;;;;;;5096979;28;20174;-16
2022/01/21 07:59:34;;;;;;;4.67;1.67;;;18.60;51.20;;;;;;5097388;28;20154;-16
2022/01/21 08:02:01;;;;;;;4.80;1.60;;;18.40;51.80;;;;;;5097378;28;20156;-15
2022/01/21 08:04:27;;;;;;;2.23;1.40;;;18.10;52.30;;;;;;5096798;28;20469;-17
2022/01/21 08:06:53;;;;;;;3.63;1.40;;;17.90;52.90;;;;;;5097530;28;20174;-16
2022/01/21 08:09:23;;;;;;;2.50;1.23;;;17.70;53.50;;;;;;5079321;28;20599;-15
2022/01/21 08:11:50;;;;;;;2.90;1.47;;;17.40;54.20;;;;;;5079448;28;20532;-16
2022/01/21 08:14:16;;;;;;;2.17;1.23;;;17.20;54.90;;;;;;5097215;28;20445;-15
2022/01/21 08:16:42;;;;;;;2.83;1.13;;;17.10;55.50;;;;;;5079665;28;20202;-17
2022/01/21 08:19:07;;;;;;;3.77;1.73;;;16.90;56.00;;;;;;5096897;28;20174;-17
2022/01/21 08:21:35;;;;;;;2.03;1.20;;;16.80;56.40;;;;;;5096979;28;20257;-16
2022/01/21 08:24:03;;;;;;;3.77;1.50;;;16.70;56.90;;;;;;5079259;28;20517;-15
2022/01/21 08:26:29;;;;;;;5.03;1.80;;;16.60;57.20;;;;;;5096707;28;20565;-14
2022/01/21 08:28:56;;;;;;;3.90;1.40;;;16.50;57.60;;;;;;5078494;28;20211;-15
2022/01/21 08:31:23;;;;;;;2.77;1.13;;;16.50;58.00;;;;;;5078977;28;20183;-15
2022/01/21 08:33:48;;;;;;;4.67;1.53;;;16.50;58.00;;;;;;5096657;28;20212;-15
2022/01/21 08:36:14;;;;;;;3.93;1.53;;;17.00;57.00;;;;;;5078565;28;20207;-16
2022/01/21 08:38:43;;;;;;;4.93;1.47;;;17.40;55.50;;;;;;5095358;28;20165;-16
2022/01/21 08:41:09;;;;;;;5.83;1.47;;;17.50;54.60;;;;;;5096306;28;20433;-15
2022/01/21 08:43:34;;;;;;;3.90;1.53;;;17.50;55.10;;;;;;5096400;28;20275;-14
2022/01/21 08:46:00;;;;;;;2.20;1.23;;;17.30;54.90;;;;;;5079101;28;20624;-15
2022/01/21 08:48:26;;;;;;;3.70;1.47;;;17.10;55.40;;;;;;5078967;28;20177;-17
2022/01/21 08:50:51;;;;;;;3.07;1.50;;;17.00;55.90;;;;;;5096644;28;20314;-15
2022/01/21 08:53:38;;;;;;;2.07;1.20;;;16.80;56.40;;;;;;5078668;28;20554;-14
2022/01/21 08:56:06;;;;;;;2.33;1.23;;;17.00;56.00;;;;;;5098126;28;20165;-17
2022/01/21 08:58:32;;;;;;;3.57;1.37;;;17.90;54.10;;;;;;5095979;28;20545;-15
2022/01/21 09:00:58;;;;;;;1.73;1.20;;;18.40;52.40;;;;;;5096260;28;20279;-15
2022/01/21 09:03:24;;;;;;;2.70;1.50;;;18.40;52.10;;;;;;5078408;28;20243;-15
2022/01/21 09:05:51;;;;;;;3.53;1.37;;;18.70;51.70;;;;;;5078254;28;20175;-15
2022/01/21 09:08:25;;;;;;;3.40;1.50;;;19.20;50.80;;;;;;5096186;28;20170;-16
2022/01/21 09:10:53;;;;;;;5.73;1.47;;;19.50;50.00;;;;;;5079189;28;20170;-16
2022/01/21 09:13:23;;;;;;;3.87;1.47;;;19.70;49.50;;;;;;5096122;28;20661;-15
2022/01/21 09:15:50;;;;;;;3.97;1.83;;;20.00;49.00;;;;;;5096972;28;20153;-19
2022/01/21 09:18:19;;;;;;;1.83;1.30;;;20.00;48.80;;;;;;5096090;28;20272;-15
2022/01/21 09:20:45;;;;;;;3.37;1.30;;;20.00;48.70;;;;;;5078404;28;20174;-15
2022/01/21 09:23:11;;;;;;;2.60;1.50;;;19.80;48.80;;;;;;5096190;28;20692;-15
2022/01/21 09:25:37;;;;;;;2.30;1.60;;;19.60;48.90;;;;;;5095837;28;20170;-15
2022/01/21 09:28:03;;;;;;;2.33;1.40;;;19.40;49.20;;;;;;5078031;28;20174;-17
2022/01/21 09:30:31;;;;;;;3.00;1.43;;;19.20;49.60;;;;;;5078065;28;20317;-17
2022/01/21 09:32:57;;;;;;;2.60;1.50;;;18.90;50.00;;;;;;5077470;28;20584;-16
2022/01/21 09:35:23;;;;;;;2.60;1.40;;;18.70;50.50;;;;;;5075259;28;20171;-15
2022/01/21 09:37:49;;;;;;;2.90;1.30;;;18.50;50.90;;;;;;5070711;28;20163;-15
2022/01/21 09:40:15;;;;;;;3.07;1.57;;;18.30;51.40;;;;;;5089066;28;20241;-15
2022/01/21 09:42:41;;;;;;;2.67;1.40;;;18.20;51.80;;;;;;5094778;28;20220;-15
2022/01/21 09:45:12;;;;;;;2.27;1.50;;;18.00;52.10;;;;;;5091947;28;20169;-15
2022/01/21 09:47:48;;;;;;;2.20;1.50;;;17.80;52.70;;;;;;5061216;28;20270;-17
2022/01/21 09:50:16;;;;;;;2.37;1.50;;;17.60;53.30;;;;;;5074686;28;20209;-16
2022/01/21 09:52:47;;;;;;;2.30;1.33;;;17.40;53.90;;;;;;5093401;28;20169;-15
2022/01/21 09:55:13;;;;;;;2.17;1.57;;;17.20;54.50;;;;;;5093340;28;20182;-15
2022/01/21 09:57:43;;;;;;;3.90;1.53;;;17.00;55.10;;;;;;5074712;28;20167;-15
2022/01/21 10:00:10;;;;;;;3.20;1.60;;;16.90;55.60;;;;;;5076074;28;20212;-16
2022/01/21 10:02:36;;;;;;;3.77;1.53;;;16.80;56.10;;;;;;5074449;28;20188;-15
2022/01/21 10:05:03;;;;;;;3.20;1.50;;;16.80;56.50;;;;;;5091914;28;20181;-19
2022/01/21 10:07:31;;;;;;;3.20;1.60;;;16.70;56.90;;;;;;5075579;28;20434;-16
2022/01/21 10:10:06;;;;;;;2.80;1.63;;;16.70;57.20;;;;;;5074024;28;20786;-16
2022/01/21 10:12:31;;;;;;;3.33;1.50;;;17.00;56.60;;;;;;5092109;28;20447;-15
2022/01/21 10:14:57;;;;;;;4.07;1.70;;;17.40;55.80;;;;;;5074798;28;20179;-15
2022/01/21 10:17:23;;;;;;;3.57;1.70;;;17.80;54.70;;;;;;5092471;28;20445;-19
2022/01/21 10:19:51;;;;;;;3.57;1.60;;;18.40;53.20;;;;;;5093641;28;20654;-17
2022/01/21 10:22:23;;;;;;;3.17;1.73;;;18.80;52.30;;;;;;5074323;28;20182;-17
2022/01/21 10:24:59;;;;;;;4.07;1.90;;;19.00;51.80;;;;;;5092990;28;20177;-15
2022/01/21 10:27:26;;;;;;;5.57;2.00;;;19.10;51.40;;;;;;5093772;28;20162;-16
2022/01/21 10:29:53;;;;;;;3.67;1.80;;;19.40;50.90;;;;;;5091641;28;20205;-17
2022/01/21 10:32:40;;;;;;;4.63;2.10;;;19.60;50.30;;;;;;5092547;28;20180;-17
2022/01/21 10:35:23;;;;;;;6.03;2.03;;;19.70;50.20;;;;;;5091986;28;20166;-17
2022/01/21 10:37:49;;;;;;;5.93;2.50;;;19.70;49.70;;;;;;5091300;28;20256;-16
2022/01/21 10:40:16;;;;;;;3.73;2.30;;;19.60;49.70;;;;;;5092556;28;20173;-16
2022/01/21 10:42:43;;;;;;;3.93;2.23;;;19.40;49.80;;;;;;5073890;28;20576;-16
2022/01/21 10:45:09;;;;;;;5.47;2.07;;;19.10;50.10;;;;;;5091791;28;20594;-16
2022/01/21 10:47:48;;;;;;;5.23;2.27;;;18.90;50.40;;;;;;5092394;28;20285;-16
2022/01/21 10:50:15;;;;;;;7.90;2.30;;;18.70;50.80;;;;;;5058489;28;20315;-15
2022/01/21 10:52:50;;;;;;;5.90;2.10;;;18.50;51.20;;;;;;5090833;28;20618;-16
2022/01/21 10:55:35;;;;;;;5.63;2.37;;;18.20;51.60;;;;;;5091997;28;20165;-17
2022/01/21 10:58:15;;;;;;;3.10;2.17;;;18.20;51.90;;;;;;5072810;28;20236;-17
2022/01/21 11:01:11;;;;;;;5.73;2.23;;;18.00;52.20;;;;;;5091865;28;20230;-17
2022/01/21 11:04:00;;;;;;;3.13;2.13;;;17.80;52.70;;;;;;5092184;28;20167;-15
2022/01/21 11:06:33;;;;;;;4.33;2.40;;;17.60;53.30;;;;;;5074292;28;20246;-16
2022/01/21 11:09:12;;;;;;;4.10;2.27;;;17.50;53.70;;;;;;5073393;28;20260;-19
2022/01/21 11:11:38;;;;;;;6.30;2.80;;;17.40;54.20;;;;;;5071812;28;20179;-15
2022/01/21 11:14:13;;;;;;;4.13;2.47;;;17.20;54.50;;;;;;5091418;28;20173;-15
2022/01/21 11:16:48;;;;;;;6.00;2.50;;;17.10;54.90;;;;;;5090130;28;20173;-17
2022/01/21 11:19:23;;;;;;;6.17;2.30;;;17.00;55.30;;;;;;5077088;28;20247;-16
2022/01/21 11:21:53;;;;;;;5.90;2.20;;;17.00;55.70;;;;;;5080335;28;20178;-16
2022/01/21 11:24:24;;;;;;;5.17;2.67;;;16.90;55.90;;;;;;5077986;28;20163;-15
2022/01/21 11:27:15;;;;;;;5.27;2.30;;;16.90;56.20;;;;;;5090492;28;20261;-16
2022/01/21 11:29:43;;;;;;;5.93;2.40;;;16.80;56.70;;;;;;5090425;28;20289;-16
2022/01/21 11:32:09;;;;;;;7.93;2.40;;;16.80;57.30;;;;;;5091184;28;20180;-15
2022/01/21 11:34:36;;;;;;;6.13;2.83;;;16.70;57.90;;;;;;5090338;28;20227;-15
2022/01/21 11:37:03;;;;;;;6.07;2.83;;;16.70;58.40;;;;;;5071972;28;20177;-18
2022/01/21 11:39:31;;;;;;;5.50;2.60;;;16.60;58.80;;;;;;5072285;28;20171;-15
2022/01/21 11:41:57;;;;;;;6.03;2.97;;;16.60;59.20;;;;;;5072556;28;20606;-15
2022/01/21 11:44:28;;;;;;;5.73;2.80;;;16.60;59.60;;;;;;5072291;28;20508;-17
2022/01/21 11:47:01;;;;;;;6.80;2.63;;;16.50;59.80;;;;;;5089496;28;20164;-16
2022/01/21 11:49:29;;;;;;;7.67;2.77;;;16.50;60.10;;;;;;5072659;28;20205;-18
2022/01/21 11:52:30;;;;;;;8.50;3.10;;;16.50;60.40;;;;;;5072569;28;20450;-15
2022/01/21 11:54:56;;;;;;;7.67;2.67;;;17.50;58.10;;;;;;5029656;28;20566;-16
2022/01/21 11:57:40;;;;;;;7.97;2.77;;;19.00;53.50;;;;;;5071466;28;20231;-18
2022/01/21 12:00:17;;;;;;;5.27;2.57;;;19.70;52.00;;;;;;5066537;28;20232;-15
2022/01/21 12:02:50;;;;;;;8.07;3.03;;;20.30;50.80;;;;;;5088761;28;20267;-16
2022/01/21 12:05:25;;;;;;;8.03;3.20;;;21.10;49.30;;;;;;5087431;28;20170;-16
2022/01/21 12:07:52;;;;;;;8.80;2.73;;;21.70;48.10;;;;;;5087984;28;20464;-15
2022/01/21 12:10:30;;;;;;;9.30;2.80;;;22.00;47.20;;;;;;5071714;28;20260;-16
2022/01/21 12:20:55;;;;;;;6.97;2.90;;;21.40;47.30;;;;;;5086244;28;20194;-16
2022/01/21 12:23:25;;;;;;;9.37;3.17;;;21.00;47.80;;;;;;5087829;28;20172;-15
2022/01/21 12:26:39;;;;;;;8.30;2.50;;;20.70;48.20;;;;;;5070336;28;20184;-15
2022/01/21 12:29:04;;;;;;;6.33;2.23;;;20.50;48.70;;;;;;5070743;28;20399;-15
2022/01/21 12:31:47;;;;;;;6.60;2.70;;;20.10;49.20;;;;;;5087883;28;20225;-16
2022/01/21 12:34:15;;;;;;;3.80;2.43;;;19.80;49.70;;;;;;5071072;28;20463;-17
2022/01/21 12:36:51;;;;;;;4.20;2.47;;;19.60;50.30;;;;;;5069292;28;20185;-15
2022/01/21 12:39:48;;;;;;;6.67;2.50;;;19.30;50.90;;;;;;5069822;28;20179;-16
2022/01/21 12:42:35;;;;;;;6.73;2.30;;;19.00;51.60;;;;;;5072797;28;20206;-17
2022/01/21 12:45:03;;;;;;;5.83;2.87;;;18.70;52.40;;;;;;5089265;28;20163;-15
2022/01/21 12:47:37;;;;;;;4.53;2.50;;;18.50;53.40;;;;;;5071393;28;20206;-15
2022/01/21 12:50:16;;;;;;;7.40;2.70;;;18.30;54.40;;;;;;5088745;28;20275;-17
2022/01/21 12:58:05;;;;;;;8.07;2.50;;;17.90;56.90;;;;;;5089579;28;20739;-17
2022/01/21 13:00:31;;;;;;;4.77;2.37;;;17.80;57.10;;;;;;5070771;28;20187;-17
2022/01/21 13:03:04;;;;;;;6.27;2.40;;;17.70;57.20;;;;;;5087809;28;20182;-15
2022/01/21 13:05:57;;;;;;;6.67;2.80;;;17.60;57.20;;;;;;5088423;28;20177;-16
2022/01/21 13:08:54;;;;;;;3.93;2.27;;;17.60;57.30;;;;;;5070221;28;20176;-16
2022/01/21 13:11:25;;;;;;;6.77;2.67;;;17.50;57.20;;;;;;5087373;28;20178;-16
2022/01/21 13:17:05;;;;;;;6.63;2.40;;;17.30;57.00;;;;;;5085927;28;20262;-17
2022/01/21 13:19:55;;;;;;;8.27;2.63;;;17.30;57.20;;;;;;5069690;28;20213;-15
2022/01/21 13:22:22;;;;;;;5.93;2.63;;;17.20;57.50;;;;;;5087238;28;20224;-15
2022/01/21 13:25:09;;;;;;;5.40;2.43;;;17.20;60.10;;;;;;5070603;28;20174;-15
2022/01/21 13:27:59;;;;;;;10.57;2.90;;;17.20;70.20;;;;;;5071410;28;20202;-15
2022/01/21 13:30:31;;;;;;;9.20;3.33;;;17.10;79.40;;;;;;5068427;28;20222;-15
2022/01/21 13:33:09;;;;;;;10.13;2.83;;;17.10;80.50;;;;;;5071117;28;20177;-15
2022/01/21 13:35:37;;;;;;;11.07;2.83;;;17.10;78.30;;;;;;5086169;28;20242;-15
2022/01/21 13:38:12;;;;;;;8.67;2.80;;;17.00;75.90;;;;;;5071222;28;20237;-15
2022/01/21 13:40:56;;;;;;;6.50;2.70;;;17.00;74.50;;;;;;5071338;28;20189;-15
2022/01/21 13:43:27;;;;;;;8.23;3.00;;;17.00;73.40;;;;;;5070372;28;20562;-15
2022/01/21 13:46:08;;;;;;;6.97;2.90;;;17.00;72.70;;;;;;5087265;28;20911;-15
2022/01/21 13:48:35;;;;;;;6.27;2.40;;;17.00;71.60;;;;;;5088159;28;20177;-16
2022/01/21 13:51:04;;;;;;;7.03;2.50;;;17.00;70.50;;;;;;5088498;28;20498;-15
2022/01/21 13:53:30;;;;;;;7.10;2.93;;;17.00;69.60;;;;;;5090310;28;20592;-15
2022/01/21 13:56:09;;;;;;;8.40;2.60;;;17.10;69.10;;;;;;5088926;28;20212;-17
2022/01/21 13:58:37;;;;;;;7.33;2.83;;;17.30;67.70;;;;;;5070280;28;20585;-16
2022/01/21 14:01:09;;;;;;;6.77;2.53;;;17.40;66.00;;;;;;5069236;28;20200;-15